Hirtshals, Denmark
Current Conditions -  °F | °C
As of 11:20 AM on Tuesday 27 Jan 2015 (Local Time) from EKYT Reporting Station
Clear Clear  
Wind Chill: 35°   Ceiling: Unl
Heat Index: 39°   Visibility: 6mi
Dew Point: 32°   Wind: 6mph
Humidity: 75%   Direction: 310°NW
Pressure: 29.91"   Gusts: NA
Location:  57.59°N, 9.96°E
Report Text: EKYT 271020Z 31005KT CAVOK 04/00 Q1013 R26/290095
Loading
Personal Weather Stations






























Interactive Weather Map New forecast layout! Learn more

10-Day Weather Forecast

Advertisements
Track Severe Weather on mobile